createdAt,value
2023-01-17T00:02:12.920Z,91935.44
2023-01-17T00:04:58.294Z,91916.69
2023-01-17T00:07:44.460Z,91939.91
2023-01-17T00:10:24.888Z,91946.31
2023-01-17T00:13:01.042Z,91954.63
2023-01-17T00:15:30.942Z,91941.22
2023-01-17T00:17:58.830Z,91950.69
2023-01-17T00:20:50.117Z,91944.63
2023-01-17T00:23:44.535Z,91952.94
2023-01-17T00:26:19.539Z,91960.88
2023-01-17T00:28:46.747Z,91951.50
2023-01-17T00:31:15.660Z,91962.38
2023-01-17T00:33:42.431Z,91946.50
2023-01-17T00:36:10.524Z,91948.63
2023-01-17T00:38:39.391Z,91944.00
2023-01-17T00:41:14.364Z,91958.38
2023-01-17T00:43:59.862Z,91956.50
2023-01-17T00:46:45.285Z,91957.47
2023-01-17T00:49:30.612Z,91956.84
2023-01-17T00:52:16.187Z,91954.38
2023-01-17T00:55:01.660Z,91957.75
2023-01-17T00:57:46.679Z,91950.34
2023-01-17T01:00:33.153Z,91962.03
2023-01-17T01:03:18.659Z,91960.63
2023-01-17T01:06:04.005Z,91966.31
2023-01-17T01:08:49.701Z,91960.25
2023-01-17T01:11:39.533Z,91986.69
2023-01-17T01:14:27.355Z,91988.28
2023-01-17T01:17:12.714Z,91980.50
2023-01-17T01:19:58.201Z,91983.81
2023-01-17T01:22:43.767Z,91971.06
2023-01-17T01:25:29.161Z,91967.75
2023-01-17T01:28:31.207Z,91971.69
2023-01-17T01:31:21.114Z,91964.34
2023-01-17T01:33:48.264Z,91951.25
2023-01-17T01:36:15.772Z,91965.16
2023-01-17T01:38:42.823Z,91972.06
2023-01-17T01:41:09.566Z,91975.94
2023-01-17T01:43:53.280Z,91975.16
2023-01-17T01:46:38.990Z,91968.56
2023-01-17T01:49:20.924Z,91972.56
2023-01-17T01:52:00.099Z,91980.16
2023-01-17T01:54:59.814Z,91967.94
2023-01-17T01:57:32.743Z,91977.84
2023-01-17T02:00:06.101Z,91976.56
2023-01-17T02:02:32.954Z,91955.09
2023-01-17T02:05:00.821Z,91961.50
2023-01-17T02:07:38.870Z,91958.91
2023-01-17T02:10:06.214Z,91964.19
2023-01-17T02:12:33.130Z,91964.28
2023-01-17T02:15:00.573Z,91954.88
2023-01-17T02:17:39.178Z,91956.31
2023-01-17T02:20:29.249Z,91951.69
2023-01-17T02:23:45.291Z,91956.75
2023-01-17T02:26:23.835Z,91952.19
2023-01-17T02:29:25.273Z,91955.47
2023-01-17T02:31:59.022Z,91950.03
2023-01-17T02:34:41.640Z,91943.88
2023-01-17T02:37:18.855Z,91960.47
2023-01-17T02:40:00.667Z,91957.84
2023-01-17T02:42:34.875Z,91957.22
2023-01-17T02:45:03.491Z,91961.44
2023-01-17T02:47:32.149Z,91954.53
2023-01-17T02:50:24.263Z,91957.66
2023-01-17T02:53:31.521Z,91968.34
2023-01-17T02:56:14.640Z,91958.75
2023-01-17T02:59:07.622Z,91968.69
2023-01-17T03:01:55.700Z,91973.91
2023-01-17T03:04:36.019Z,91964.91
2023-01-17T03:07:11.841Z,91955.19
2023-01-17T03:09:40.828Z,91952.59
2023-01-17T03:12:09.803Z,91957.50
2023-01-17T03:14:36.556Z,91950.13
2023-01-17T03:17:03.465Z,91949.56
2023-01-17T03:19:31.424Z,91960.22
2023-01-17T03:21:58.303Z,91961.81
2023-01-17T03:24:25.023Z,91951.06
2023-01-17T03:26:51.812Z,91954.78
2023-01-17T03:29:18.687Z,91951.59
2023-01-17T03:31:46.671Z,91952.75
2023-01-17T03:34:13.442Z,91954.38
2023-01-17T03:36:40.167Z,91947.78
2023-01-17T03:39:07.015Z,91935.56
2023-01-17T03:41:33.778Z,91947.66
2023-01-17T03:44:01.033Z,91947.22
2023-01-17T03:46:28.891Z,91941.25
2023-01-17T03:48:55.642Z,91946.16
2023-01-17T03:51:22.403Z,91946.03
2023-01-17T03:53:50.164Z,91954.78
2023-01-17T03:56:17.132Z,91944.47
2023-01-17T03:58:44.079Z,91941.47
2023-01-17T04:01:11.295Z,91949.97
2023-01-17T04:03:38.399Z,91948.69
2023-01-17T04:06:05.452Z,91958.75
2023-01-17T04:08:32.234Z,91944.28
2023-01-17T04:10:59.191Z,91957.50
2023-01-17T04:13:25.941Z,91940.09
2023-01-17T04:15:52.741Z,91948.16
2023-01-17T04:18:23.179Z,91960.22
2023-01-17T04:20:50.902Z,91948.13
2023-01-17T04:23:18.088Z,91961.66
2023-01-17T04:25:45.007Z,91953.94
2023-01-17T04:28:12.173Z,91962.34
2023-01-17T04:30:39.481Z,91953.97
2023-01-17T04:33:06.367Z,91956.50
2023-01-17T04:35:36.275Z,91954.91
2023-01-17T04:38:03.334Z,91950.72
2023-01-17T04:40:30.216Z,91948.94
2023-01-17T04:42:58.019Z,91938.97
2023-01-17T04:45:24.979Z,91931.22
2023-01-17T04:47:51.806Z,91926.53
2023-01-17T04:50:18.946Z,91942.78
2023-01-17T04:52:45.747Z,91928.81
2023-01-17T04:55:12.488Z,91939.38
2023-01-17T04:57:39.234Z,91945.19
2023-01-17T05:00:06.898Z,91959.28
2023-01-17T05:02:33.764Z,91958.91
2023-01-17T05:05:00.631Z,91948.81
2023-01-17T05:07:27.409Z,91952.84
2023-01-17T05:09:54.204Z,91937.03
2023-01-17T05:12:20.929Z,91924.03
2023-01-17T05:14:47.658Z,91913.50
2023-01-17T05:17:14.393Z,91916.63
2023-01-17T05:19:41.198Z,91923.53
2023-01-17T05:22:15.234Z,91907.44
2023-01-17T05:24:46.424Z,91914.63
2023-01-17T05:27:14.775Z,91922.06
2023-01-17T05:29:41.790Z,91923.06
2023-01-17T05:32:08.619Z,91918.84
2023-01-17T05:34:35.422Z,91914.69
2023-01-17T05:37:02.328Z,91907.28
2023-01-17T05:39:31.036Z,91908.56
2023-01-17T05:41:58.719Z,91909.50
2023-01-17T05:44:27.583Z,91898.41
2023-01-17T05:46:54.894Z,91878.97
2023-01-17T05:49:21.892Z,91886.72
2023-01-17T05:51:48.684Z,91918.94
2023-01-17T05:54:15.591Z,91911.88
2023-01-17T05:56:42.384Z,91922.19
2023-01-17T05:59:09.178Z,91910.59
2023-01-17T06:01:35.919Z,91919.91
2023-01-17T06:04:02.671Z,91893.19
2023-01-17T06:06:29.442Z,91918.00
2023-01-17T06:08:56.205Z,91883.25
2023-01-17T06:11:22.990Z,91864.25
2023-01-17T06:13:49.820Z,91901.25
2023-01-17T06:16:16.656Z,91893.38
2023-01-17T06:18:43.416Z,91887.41
2023-01-17T06:21:10.409Z,91901.91
2023-01-17T06:23:37.337Z,91899.34
2023-01-17T06:26:04.908Z,91898.69
2023-01-17T06:28:31.762Z,91893.53
2023-01-17T06:31:00.018Z,91897.88
2023-01-17T06:33:27.151Z,91888.69
2023-01-17T06:35:53.956Z,91895.13
2023-01-17T06:38:20.948Z,91901.88
2023-01-17T06:40:48.140Z,91886.75
2023-01-17T06:43:15.187Z,91886.56
2023-01-17T06:45:41.929Z,91891.84
2023-01-17T06:48:08.747Z,91881.53
2023-01-17T06:50:35.652Z,91887.66
2023-01-17T06:53:05.488Z,91894.59
2023-01-17T06:55:34.877Z,91891.19
2023-01-17T06:58:05.078Z,91884.28
2023-01-17T07:00:35.225Z,91868.03
2023-01-17T07:03:02.191Z,91875.44
2023-01-17T07:05:29.481Z,91868.50
2023-01-17T07:07:57.680Z,91872.88
2023-01-17T07:10:24.399Z,91860.78
2023-01-17T07:12:51.592Z,91862.56
2023-01-17T07:15:18.523Z,91862.22
2023-01-17T07:17:45.557Z,91863.16
2023-01-17T07:20:13.606Z,91873.97
2023-01-17T07:22:40.418Z,91880.41
2023-01-17T07:25:07.680Z,91882.81
2023-01-17T07:27:34.434Z,91881.69
2023-01-17T07:30:01.180Z,91875.72
2023-01-17T07:32:28.517Z,91873.19
2023-01-17T07:34:57.660Z,91848.94
2023-01-17T07:37:26.024Z,91828.16
2023-01-17T07:39:53.887Z,91855.03
2023-01-17T07:42:23.210Z,91841.38
2023-01-17T07:44:50.793Z,91828.81
2023-01-17T07:47:17.707Z,91836.25
2023-01-17T07:49:44.583Z,91838.66
2023-01-17T07:52:11.446Z,91853.47
2023-01-17T07:54:38.506Z,91867.63
2023-01-17T07:57:05.325Z,91867.78
2023-01-17T07:59:33.883Z,91850.38
2023-01-17T08:02:00.972Z,91850.88
2023-01-17T08:04:34.833Z,91854.44
2023-01-17T08:07:02.155Z,91864.25
2023-01-17T08:09:29.033Z,91861.50
2023-01-17T08:11:55.778Z,91841.72
2023-01-17T08:14:22.536Z,91846.06
2023-01-17T08:16:49.301Z,91860.56
2023-01-17T08:19:17.216Z,91867.00
2023-01-17T08:21:44.257Z,91869.38
2023-01-17T08:24:14.911Z,91863.59
2023-01-17T08:26:41.810Z,91863.91
2023-01-17T08:29:09.428Z,91861.66
2023-01-17T08:31:36.784Z,91853.28
2023-01-17T08:34:03.694Z,91852.78
2023-01-17T08:36:31.416Z,91840.22
2023-01-17T08:38:58.991Z,91824.28
2023-01-17T08:41:27.897Z,91832.94
2023-01-17T08:43:54.777Z,91821.34
2023-01-17T08:46:21.668Z,91817.03
2023-01-17T08:48:48.436Z,91812.34
2023-01-17T08:51:15.152Z,91798.16
2023-01-17T08:53:42.540Z,91790.09
2023-01-17T08:56:09.651Z,91772.69
2023-01-17T08:58:36.568Z,91770.09
2023-01-17T09:01:06.215Z,91781.47
2023-01-17T09:03:34.636Z,91779.00
2023-01-17T09:06:07.661Z,91759.50
2023-01-17T09:08:35.163Z,91763.53
2023-01-17T09:11:13.323Z,91779.25
2023-01-17T09:13:40.798Z,91775.72
2023-01-17T09:16:08.565Z,91765.03
2023-01-17T09:18:36.562Z,91763.56
2023-01-17T09:21:17.912Z,91754.84
2023-01-17T09:23:45.445Z,91767.94
2023-01-17T09:26:23.204Z,91739.50
2023-01-17T09:28:51.030Z,91774.13
2023-01-17T09:31:23.138Z,91754.16
2023-01-17T09:33:51.999Z,91736.63
2023-01-17T09:36:19.321Z,91747.34
2023-01-17T09:38:46.619Z,91737.03
2023-01-17T09:41:27.777Z,91739.94
2023-01-17T09:44:03.511Z,91722.56
2023-01-17T09:46:34.999Z,91720.97
2023-01-17T09:49:09.055Z,91725.19
2023-01-17T09:51:36.752Z,91687.50
2023-01-17T09:54:03.813Z,91703.63
2023-01-17T09:56:43.005Z,91701.88
2023-01-17T10:00:02.933Z,91734.56
2023-01-17T10:02:38.656Z,91730.03
2023-01-17T10:05:30.143Z,91739.09
2023-01-17T10:07:59.714Z,91750.25
2023-01-17T10:10:42.040Z,91740.63
2023-01-17T10:14:00.509Z,91722.00
2023-01-17T10:16:59.001Z,91723.59
2023-01-17T10:19:47.532Z,91740.78
2023-01-17T10:22:51.507Z,91740.50
2023-01-17T10:25:49.209Z,91740.19
2023-01-17T10:28:24.071Z,91730.34
2023-01-17T10:30:54.910Z,91714.88
2023-01-17T10:33:27.731Z,91713.78
2023-01-17T10:35:59.927Z,91719.28
2023-01-17T10:38:38.804Z,91689.19
2023-01-17T10:41:25.800Z,91706.84
2023-01-17T10:44:10.912Z,91710.88
2023-01-17T10:46:45.678Z,91694.47
2023-01-17T10:49:22.723Z,91690.97
2023-01-17T10:52:31.785Z,91700.00
2023-01-17T10:55:39.291Z,91697.47
2023-01-17T10:58:11.756Z,91689.88
2023-01-17T11:00:50.674Z,91685.97
2023-01-17T11:03:23.965Z,91679.63
2023-01-17T11:06:26.358Z,91677.25
2023-01-17T11:08:58.322Z,91677.31
2023-01-17T11:11:32.110Z,91669.75
2023-01-17T11:14:15.087Z,91665.00
2023-01-17T11:16:42.462Z,91662.91
2023-01-17T11:19:26.764Z,91656.97
2023-01-17T11:22:01.755Z,91654.19
2023-01-17T11:24:37.771Z,91645.03
2023-01-17T11:27:07.237Z,91634.72
2023-01-17T11:29:39.569Z,91634.50
2023-01-17T11:32:21.458Z,91623.59
2023-01-17T11:35:12.808Z,91615.03
2023-01-17T11:37:40.987Z,91597.66
2023-01-17T11:40:25.755Z,91610.91
2023-01-17T11:43:12.337Z,91607.69
2023-01-17T11:45:40.704Z,91605.72
2023-01-17T11:48:11.186Z,91604.16
2023-01-17T11:51:00.050Z,91593.41
2023-01-17T11:53:31.296Z,91566.44
2023-01-17T11:56:08.578Z,91583.03
2023-01-17T11:58:39.997Z,91582.28
2023-01-17T12:01:36.635Z,91579.81
2023-01-17T12:04:29.838Z,91567.88
2023-01-17T12:07:26.452Z,91561.84
2023-01-17T12:10:14.838Z,91540.50
2023-01-17T12:13:27.011Z,91545.13
2023-01-17T12:16:28.094Z,91552.31
2023-01-17T12:19:25.527Z,91561.72
2023-01-17T12:22:12.527Z,91558.91
2023-01-17T12:24:54.407Z,91564.31
2023-01-17T12:27:28.731Z,91553.72
2023-01-17T12:30:30.905Z,91547.16
2023-01-17T12:33:13.420Z,91544.97
2023-01-17T12:35:50.768Z,91516.81
2023-01-17T12:38:33.590Z,91534.38
2023-01-17T12:41:07.570Z,91534.75
2023-01-17T12:43:40.233Z,91526.00
2023-01-17T12:46:38.572Z,91526.00
2023-01-17T12:49:24.406Z,91528.59
2023-01-17T12:51:59.425Z,91509.81
2023-01-17T12:54:38.315Z,91495.63
2023-01-17T12:57:24.502Z,91515.59
2023-01-17T13:00:00.568Z,91498.03
2023-01-17T13:02:39.255Z,91485.66
2023-01-17T13:05:23.831Z,91487.88
2023-01-17T13:08:34.366Z,91484.25
2023-01-17T13:11:07.409Z,91472.88
2023-01-17T13:13:35.809Z,91442.94
2023-01-17T13:16:11.990Z,91460.09
2023-01-17T13:18:47.389Z,91458.91
2023-01-17T13:21:34.230Z,91448.94
2023-01-17T13:24:03.581Z,91470.50
2023-01-17T13:26:36.563Z,91450.53
2023-01-17T13:29:48.100Z,91481.66
2023-01-17T13:32:52.452Z,91486.03
2023-01-17T13:35:40.748Z,91486.88
2023-01-17T13:38:22.263Z,91485.25
2023-01-17T13:41:16.801Z,91483.69
2023-01-17T13:44:05.387Z,91478.47
2023-01-17T13:46:56.112Z,91474.06
2023-01-17T13:49:35.233Z,91471.06
2023-01-17T13:52:19.865Z,91470.47
2023-01-17T13:54:50.417Z,91467.69
2023-01-17T13:57:28.538Z,91476.03
2023-01-17T14:00:24.359Z,91478.84
2023-01-17T14:02:55.209Z,91480.41
2023-01-17T14:05:42.242Z,91482.41
2023-01-17T14:08:21.927Z,91476.84
2023-01-17T14:10:54.931Z,91477.22
2023-01-17T14:13:39.336Z,91480.81
2023-01-17T14:16:27.036Z,91482.41
2023-01-17T14:18:55.495Z,91479.19
2023-01-17T14:21:24.417Z,91476.00
2023-01-17T14:24:16.583Z,91469.63
2023-01-17T14:27:16.442Z,91468.03
2023-01-17T14:29:43.996Z,91468.81
2023-01-17T14:32:18.255Z,91469.56
2023-01-17T14:34:48.929Z,91453.66
2023-01-17T14:37:54.437Z,91447.88
2023-01-17T14:40:30.645Z,91450.09
2023-01-17T14:43:11.419Z,91433.75
2023-01-17T14:45:39.515Z,91443.09
2023-01-17T14:48:13.719Z,91440.50
2023-01-17T14:50:43.358Z,91439.72
2023-01-17T14:53:22.225Z,91452.88
2023-01-17T14:55:49.887Z,91455.88
2023-01-17T14:58:26.047Z,91449.84
2023-01-17T15:01:05.054Z,91440.66
2023-01-17T15:03:55.493Z,91456.81
2023-01-17T15:06:26.432Z,91455.41
2023-01-17T15:08:55.966Z,91454.63
2023-01-17T15:11:30.228Z,91461.63
2023-01-17T15:15:02.788Z,91471.59
2023-01-17T15:17:30.031Z,91471.59
2023-01-17T15:20:04.132Z,91471.97
2023-01-17T15:22:31.205Z,91457.94
2023-01-17T15:24:59.039Z,91456.56
2023-01-17T15:27:26.281Z,91467.34
2023-01-17T15:29:54.144Z,91460.78
2023-01-17T15:32:24.461Z,91467.16
2023-01-17T15:34:51.910Z,91456.34
2023-01-17T15:37:35.341Z,91475.13
2023-01-17T15:40:05.873Z,91463.53
2023-01-17T15:42:36.708Z,91472.28
2023-01-17T15:45:05.981Z,91469.69
2023-01-17T15:47:41.268Z,91459.94
2023-01-17T15:50:20.310Z,91464.13
2023-01-17T15:53:05.932Z,91463.91
2023-01-17T15:55:40.368Z,91464.69
2023-01-17T15:58:27.319Z,91455.88
2023-01-17T16:00:55.146Z,91462.00
2023-01-17T16:03:31.011Z,91461.84
2023-01-17T16:06:03.024Z,91453.84
2023-01-17T16:08:33.885Z,91462.41
2023-01-17T16:11:03.737Z,91457.44
2023-01-17T16:13:33.588Z,91451.41
2023-01-17T16:16:29.531Z,91458.53
2023-01-17T16:19:01.262Z,91459.16
2023-01-17T16:21:31.139Z,91460.72
2023-01-17T16:23:59.873Z,91456.31
2023-01-17T16:26:29.161Z,91454.50
2023-01-17T16:28:56.148Z,91464.25
2023-01-17T16:31:23.146Z,91455.06
2023-01-17T16:33:50.970Z,91461.63
2023-01-17T16:36:21.307Z,91463.22
2023-01-17T16:38:51.297Z,91468.81
2023-01-17T16:41:18.929Z,91472.16
2023-01-17T16:43:45.664Z,91471.19
2023-01-17T16:46:12.589Z,91468.78
2023-01-17T16:48:39.358Z,91475.16
2023-01-17T16:51:08.211Z,91473.16
2023-01-17T16:53:36.735Z,91483.47
2023-01-17T16:56:14.646Z,91491.41
2023-01-17T16:58:41.782Z,91469.88
2023-01-17T17:01:11.711Z,91494.84
2023-01-17T17:03:38.577Z,91488.22
2023-01-17T17:06:05.552Z,91493.63
2023-01-17T17:08:35.336Z,91499.59
2023-01-17T17:11:15.027Z,91484.22
2023-01-17T17:13:46.919Z,91504.94
2023-01-17T17:16:30.089Z,91516.13
2023-01-17T17:19:01.403Z,91509.53
2023-01-17T17:21:29.552Z,91514.94
2023-01-17T17:23:59.475Z,91517.97
2023-01-17T17:26:34.568Z,91517.91
2023-01-17T17:29:02.365Z,91504.13
2023-01-17T17:31:29.320Z,91508.06
2023-01-17T17:34:03.175Z,91529.59
2023-01-17T17:36:30.883Z,91519.47
2023-01-17T17:38:58.648Z,91536.66
2023-01-17T17:41:28.698Z,91535.16
2023-01-17T17:43:56.238Z,91533.94
2023-01-17T17:46:25.258Z,91538.72
2023-01-17T17:48:52.014Z,91527.41
2023-01-17T17:51:35.934Z,91535.34
2023-01-17T17:54:06.485Z,91535.16
2023-01-17T17:56:34.131Z,91529.13
2023-01-17T17:59:01.987Z,91543.28
2023-01-17T18:01:28.998Z,91536.69
2023-01-17T18:04:01.379Z,91544.13
2023-01-17T18:06:28.151Z,91538.38
2023-01-17T18:08:54.864Z,91536.69
2023-01-17T18:11:26.159Z,91540.63
2023-01-17T18:13:55.105Z,91528.84
2023-01-17T18:16:29.502Z,91557.59
2023-01-17T18:18:58.830Z,91558.59
2023-01-17T18:21:29.429Z,91559.56
2023-01-17T18:24:03.691Z,91571.34
2023-01-17T18:26:43.897Z,91565.34
2023-01-17T18:29:17.788Z,91574.56
2023-01-17T18:31:46.827Z,91573.38
2023-01-17T18:34:21.345Z,91565.59
2023-01-17T18:36:48.158Z,91563.78
2023-01-17T18:39:21.592Z,91568.56
2023-01-17T18:41:49.477Z,91563.78
2023-01-17T18:44:16.828Z,91567.41
2023-01-17T18:46:43.766Z,91569.78
2023-01-17T18:49:12.830Z,91573.63
2023-01-17T18:51:39.616Z,91564.38
2023-01-17T18:54:08.894Z,91566.22
2023-01-17T18:56:35.950Z,91561.63
2023-01-17T18:59:05.896Z,91574.38
2023-01-17T19:01:35.910Z,91568.81
2023-01-17T19:04:05.560Z,91555.88
2023-01-17T19:06:44.453Z,91569.22
2023-01-17T19:09:13.917Z,91566.84
2023-01-17T19:11:40.923Z,91563.66
2023-01-17T19:14:07.758Z,91555.22
2023-01-17T19:16:39.459Z,91566.41
2023-01-17T19:19:10.793Z,91570.78
2023-01-17T19:21:37.814Z,91566.84
2023-01-17T19:24:05.046Z,91572.03
2023-01-17T19:26:31.842Z,91561.31
2023-01-17T19:28:59.087Z,91563.28
2023-01-17T19:31:31.554Z,91560.69
2023-01-17T19:33:59.548Z,91579.22
2023-01-17T19:36:37.532Z,91580.03
2023-01-17T19:39:07.366Z,91575.66
2023-01-17T19:41:37.934Z,91585.56
2023-01-17T19:44:07.948Z,91568.03
2023-01-17T19:46:36.400Z,91587.19
2023-01-17T19:49:05.461Z,91580.03
2023-01-17T19:51:32.318Z,91583.66
2023-01-17T19:54:01.380Z,91594.31
2023-01-17T19:56:29.140Z,91571.78
2023-01-17T19:59:00.769Z,91586.78
2023-01-17T20:01:31.216Z,91571.28
2023-01-17T20:03:59.165Z,91564.44
2023-01-17T20:06:30.314Z,91575.59
2023-01-17T20:08:57.695Z,91584.38
2023-01-17T20:11:26.695Z,91583.09
2023-01-17T20:13:56.726Z,91582.66
2023-01-17T20:16:25.918Z,91589.78
2023-01-17T20:18:53.028Z,91597.53
2023-01-17T20:21:26.320Z,91595.91
2023-01-17T20:23:54.991Z,91607.44
2023-01-17T20:26:34.563Z,91603.44
2023-01-17T20:29:10.148Z,91598.38
2023-01-17T20:31:39.250Z,91595.78
2023-01-17T20:34:08.364Z,91603.91
2023-01-17T20:36:35.336Z,91594.97
2023-01-17T20:39:07.835Z,91600.59
2023-01-17T20:41:38.203Z,91593.81
2023-01-17T20:44:08.080Z,91574.13
2023-01-17T20:46:40.763Z,91571.16
2023-01-17T20:49:13.075Z,91574.72
2023-01-17T20:51:40.181Z,91559.22
2023-01-17T20:54:10.080Z,91556.19
2023-01-17T20:56:37.940Z,91567.16
2023-01-17T20:59:12.466Z,91588.47
2023-01-17T21:01:39.618Z,91590.31
2023-01-17T21:04:10.221Z,91594.19
2023-01-17T21:06:39.739Z,91604.16
2023-01-17T21:09:11.557Z,91608.72
2023-01-17T21:11:38.568Z,91615.22
2023-01-17T21:14:06.574Z,91622.63
2023-01-17T21:16:35.061Z,91618.66
2023-01-17T21:19:02.009Z,91618.88
2023-01-17T21:21:31.884Z,91619.44
2023-01-17T21:23:59.567Z,91622.25
2023-01-17T21:26:28.261Z,91596.97
2023-01-17T21:28:55.772Z,91613.34
2023-01-17T21:31:34.871Z,91607.69
2023-01-17T21:34:05.341Z,91608.31
2023-01-17T21:36:38.810Z,91604.47
2023-01-17T21:39:10.955Z,91592.81
2023-01-17T21:41:40.441Z,91599.72
2023-01-17T21:44:16.904Z,91606.31
2023-01-17T21:46:43.705Z,91602.91
2023-01-17T21:49:12.045Z,91608.31
2023-01-17T21:51:54.536Z,91600.69
2023-01-17T21:54:45.792Z,91600.34
2023-01-17T21:57:33.970Z,91609.50
2023-01-17T22:00:00.744Z,91604.69
2023-01-17T22:02:27.559Z,91601.91
2023-01-17T22:04:54.772Z,91595.06
2023-01-17T22:07:21.558Z,91581.72
2023-01-17T22:09:48.369Z,91611.91
2023-01-17T22:12:15.091Z,91611.09
2023-01-17T22:14:41.823Z,91617.59
2023-01-17T22:17:08.733Z,91623.00
2023-01-17T22:19:35.494Z,91604.78
2023-01-17T22:22:02.664Z,91621.88
2023-01-17T22:24:29.390Z,91611.66
2023-01-17T22:26:56.102Z,91604.97
2023-01-17T22:29:23.028Z,91617.88
2023-01-17T22:31:49.736Z,91609.25
2023-01-17T22:34:16.807Z,91614.84
2023-01-17T22:36:43.552Z,91602.03
2023-01-17T22:39:10.474Z,91596.44
2023-01-17T22:41:38.405Z,91611.38
2023-01-17T22:44:05.619Z,91595.97
2023-01-17T22:46:37.246Z,91605.97
2023-01-17T22:49:05.956Z,91600.63
2023-01-17T22:51:32.720Z,91594.56
2023-01-17T22:54:01.215Z,91598.03
2023-01-17T22:56:33.307Z,91600.63
2023-01-17T22:59:01.163Z,91596.97
2023-01-17T23:01:31.140Z,91589.13
2023-01-17T23:04:03.939Z,91591.31
2023-01-17T23:06:35.650Z,91589.63
2023-01-17T23:09:12.451Z,91608.28
2023-01-17T23:11:47.213Z,91607.66
2023-01-17T23:14:24.193Z,91613.56
2023-01-17T23:17:18.789Z,91593.44
2023-01-17T23:19:52.597Z,91606.56
2023-01-17T23:22:26.997Z,91599.34
2023-01-17T23:25:06.092Z,91621.78
2023-01-17T23:27:57.027Z,91614.38
2023-01-17T23:30:35.537Z,91603.97
2023-01-17T23:33:13.359Z,91598.75
2023-01-17T23:35:43.760Z,91606.81
2023-01-17T23:38:25.952Z,91602.56
2023-01-17T23:41:12.602Z,91606.84
2023-01-17T23:43:39.307Z,91613.13
2023-01-17T23:46:11.650Z,91618.31
2023-01-17T23:48:38.420Z,91609.41
2023-01-17T23:51:11.006Z,91624.19
2023-01-17T23:53:39.004Z,91624.38
2023-01-17T23:56:21.523Z,91620.34
2023-01-17T23:58:48.270Z,91612.22
